ADDS METAR Data INFO
IDs: Format: Raw Decoded Include TAF

Data at: 1611 UTC 14 Aug 2018

KUYF 141555Z AUTO 24005KT 10SM CLR 27/19 A3007 RMK AO2
KUYF 141535Z AUTO 24005KT 10SM CLR 27/19 A3007 RMK AO2
KUYF 141515Z AUTO 26005KT 10SM CLR 26/19 A3006 RMK AO2
KUYF 141455Z AUTO 25003KT 10SM CLR 25/19 A3006 RMK AO2
KUYF 141435Z AUTO 25003KT 10SM CLR 25/19 A3005 RMK AO2
KUYF 141415Z AUTO 27003KT 10SM CLR 25/18 A3005 RMK AO2
KUYF 141355Z AUTO 00000KT 10SM CLR 24/20 A3005 RMK AO2
KUYF 141335Z AUTO 23003KT 10SM CLR 23/20 A3005 RMK AO2
KUYF 141315Z AUTO 00000KT 10SM CLR 22/20 A3005 RMK AO2
KUYF 141255Z AUTO 00000KT 10SM CLR 21/20 A3005 RMK AO2
KUYF 141235Z AUTO 24003KT 10SM CLR 20/18 A3004 RMK AO2
KUYF 141215Z AUTO 23003KT 10SM CLR 18/17 A3004 RMK AO2
KUYF 141155Z AUTO 22003KT 10SM CLR 17/16 A3003 RMK AO2 LTG DSNT E
KUYF 141135Z AUTO 25003KT 10SM CLR 15/14 A3003 RMK AO2
KUYF 141115Z AUTO 00000KT 7SM CLR 15/14 A3003 RMK AO2
KUYF 141055Z AUTO 00000KT 7SM CLR 15/13 A3003 RMK AO2
KUYF 141035Z AUTO 00000KT 10SM CLR 15/13 A3002 RMK AO2
KUYF 141015Z AUTO 28004KT 10SM CLR 15/13 A3002 RMK AO2
KUYF 140955Z AUTO 26003KT 10SM CLR 15/13 A3002 RMK AO2
KUYF 140935Z AUTO 00000KT 10SM CLR 15/13 A3002 RMK AO2
KUYF 140915Z AUTO 29003KT 10SM CLR 15/13 A3002 RMK AO2
KUYF 140855Z AUTO 00000KT 10SM CLR 15/13 A3002 RMK AO2
KUYF 140835Z AUTO 00000KT 10SM CLR 15/14 A3002 RMK AO2
KUYF 140815Z AUTO 35003KT 10SM CLR 16/15 A3002 RMK AO2
KUYF 140755Z AUTO 29003KT 10SM CLR 15/14 A3002 RMK AO2
KUYF 140735Z AUTO 26004KT 10SM CLR 16/14 A3003 RMK AO2
KUYF 140715Z AUTO 00000KT 10SM CLR 16/14 A3003 RMK AO2
KUYF 140655Z AUTO 29003KT 10SM CLR 16/15 A3003 RMK AO2
KUYF 140635Z AUTO 28003KT 10SM CLR 16/15 A3003 RMK AO2
KUYF 140615Z AUTO 27003KT 10SM CLR 16/15 A3004 RMK AO2
KUYF 140555Z AUTO 29003KT 10SM CLR 16/15 A3004 RMK AO2
KUYF 140535Z AUTO 31003KT 10SM CLR 17/15 A3004 RMK AO2
KUYF 140515Z AUTO 00000KT 10SM CLR 16/15 A3005 RMK AO2
KUYF 140455Z AUTO 00000KT 10SM CLR 16/15 A3005 RMK AO2
KUYF 140435Z AUTO 28003KT 10SM CLR 17/16 A3005 RMK AO2
KUYF 140415Z AUTO 35003KT 10SM CLR 17/16 A3005 RMK AO2
KUYF 140355Z AUTO 31003KT 10SM CLR 17/16 A3005 RMK AO2
KUYF 140335Z AUTO 33003KT 10SM CLR 19/18 A3005 RMK AO2
KUYF 140315Z AUTO 35003KT 10SM CLR 17/16 A3005 RMK AO2
KUYF 140255Z AUTO 00000KT 10SM CLR 17/16 A3005 RMK AO2
KUYF 140235Z AUTO 33003KT 10SM CLR 18/17 A3005 RMK AO2
KUYF 140215Z AUTO 33003KT 10SM CLR 19/17 A3005 RMK AO2
KUYF 140155Z AUTO 35003KT 10SM CLR 18/17 A3004 RMK AO2
KUYF 140135Z AUTO 34003KT 10SM CLR 19/18 A3004 RMK AO2
KUYF 140115Z AUTO 35003KT 10SM CLR 21/20 A3003 RMK AO2
KUYF 140055Z AUTO 00000KT 10SM CLR 21/20 A3003 RMK AO2
KUYF 140035Z AUTO 00000KT 10SM CLR 22/19 A3003 RMK AO2
KUYF 140015Z AUTO 00000KT 10SM CLR 22/21 A3002 RMK AO2 LTG DSNT SE
KUYF 132355Z AUTO 34003KT 10SM VCTS SCT049 24/18 A3002 RMK AO2 LTG DSNT SE
KUYF 132335Z AUTO 35003KT 10SM SCT049 25/18 A3002 RMK AO2 LTG DSNT E
KUYF 132315Z AUTO 35005KT 10SM CLR 26/17 A3002 RMK AO2
KUYF 132255Z AUTO 34006KT 10SM CLR 26/16 A3002 RMK AO2
KUYF 132235Z AUTO 35003KT 10SM CLR 26/18 A3002 RMK AO2
KUYF 132215Z AUTO 36003KT 10SM SCT045 SCT060 SCT075 25/18 A3002 RMK AO2
KUYF 132155Z AUTO 01005KT 10SM -RA SCT033 SCT047 OVC100 26/18 A3003 RMK AO2
KUYF 132135Z AUTO 36005KT 10SM SCT110 27/17 A3003 RMK AO2
KUYF 132115Z AUTO 36007KT 10SM SCT046 SCT060 27/17 A3003 RMK AO2
KUYF 132055Z AUTO 34005KT 10SM SCT046 BKN060 BKN070 26/18 A3003 RMK AO2
KUYF 132035Z AUTO 30004KT 10SM SCT044 SCT050 27/16 A3003 RMK AO2
KUYF 132015Z AUTO 31004KT 10SM CLR 27/17 A3004 RMK AO2
KUYF 131955Z AUTO 35004KT 10SM SCT050 SCT070 25/17 A3005 RMK AO2
KUYF 131935Z AUTO 36004KT 10SM SCT042 SCT050 BKN070 25/18 A3005 RMK AO2
KUYF 131915Z AUTO 00000KT 10SM SCT042 SCT055 SCT100 27/16 A3005 RMK AO2
KUYF 131855Z AUTO 02003KT 10SM SCT042 26/17 A3006 RMK AO2
KUYF 131835Z AUTO 07004KT 10SM SCT040 27/16 A3007 RMK AO2
KUYF 131815Z AUTO 02005KT 10SM CLR 26/17 A3007 RMK AO2
KUYF 131755Z AUTO 02003KT 10SM SCT032 SCT044 SCT060 26/19 A3008 RMK AO2
KUYF 131735Z AUTO 01004KT 10SM BKN032 BKN044 OVC065 25/18 A3009 RMK AO2
KUYF 131715Z AUTO 36004KT 10SM BKN032 BKN042 26/18 A3010 RMK AO2
KUYF 131655Z AUTO 36006KT 10SM BKN030 BKN035 26/18 A3010 RMK AO2
KUYF 131635Z AUTO 36006KT 10SM BKN028 25/18 A3011 RMK AO2 LTG DSNT E
KUYF 131615Z AUTO 03005KT 10SM BKN026 25/19 A3011 RMK AO2
KUYF 131555Z AUTO 02004KT 10SM CLR 25/18 A3011 RMK AO2
KUYF 131535Z AUTO 02005KT 10SM CLR 25/19 A3012 RMK AO2
KUYF 131515Z AUTO 01005KT 10SM SCT021 24/19 A3012 RMK AO2
KUYF 131455Z AUTO 03004KT 10SM CLR 23/20 A3012 RMK AO2
KUYF 131435Z AUTO 03004KT 10SM CLR 23/20 A3012 RMK AO2
KUYF 131415Z AUTO 02004KT 10SM CLR 22/20 A3012 RMK AO2
KUYF 131355Z AUTO 03004KT 10SM CLR 22/20 A3012 RMK AO2
KUYF 131335Z AUTO 01003KT 10SM CLR 21/19 A3012 RMK AO2
KUYF 131315Z AUTO 02003KT 10SM CLR 21/19 A3012 RMK AO2
KUYF 131255Z AUTO 01004KT 10SM CLR 20/18 A3012 RMK AO2
KUYF 131235Z AUTO 36005KT 10SM CLR 19/17 A3011 RMK AO2
KUYF 131215Z AUTO 36004KT 7SM CLR 18/17 A3011 RMK AO2
KUYF 131155Z AUTO 01004KT 10SM CLR 18/17 A3011 RMK AO2
KUYF 131135Z AUTO 00000KT 10SM CLR 17/16 A3011 RMK AO2
KUYF 131115Z AUTO 33003KT 7SM CLR 17/16 A3011 RMK AO2
KUYF 131055Z AUTO 00000KT 7SM CLR 16/15 A3010 RMK AO2
KUYF 131035Z AUTO 00000KT 10SM CLR 16/15 A3010 RMK AO2
KUYF 131015Z AUTO 00000KT 10SM CLR 16/15 A3009 RMK AO2
KUYF 130955Z AUTO 00000KT 10SM CLR 17/15 A3009 RMK AO2
KUYF 130935Z AUTO 34003KT 10SM CLR 17/16 A3009 RMK AO2
KUYF 130915Z AUTO 34005KT 10SM CLR 17/16 A3010 RMK AO2
KUYF 130855Z AUTO 35004KT 10SM CLR 17/16 A3009 RMK AO2
KUYF 130835Z AUTO 33004KT 10SM CLR 17/16 A3009 RMK AO2
KUYF 130815Z AUTO 34003KT 10SM CLR 16/15 A3008 RMK AO2
KUYF 130755Z AUTO 00000KT 10SM CLR 16/15 A3009 RMK AO2
KUYF 130735Z AUTO 32003KT 10SM CLR 16/15 A3009 RMK AO2
KUYF 130715Z AUTO 00000KT 10SM CLR 16/15 A3010 RMK AO2
KUYF 130655Z AUTO 00000KT 10SM CLR 16/15 A3010 RMK AO2
KUYF 130635Z AUTO 00000KT 10SM CLR 16/15 A3010 RMK AO2
KUYF 130615Z AUTO 00000KT 10SM CLR 17/16 A3010 RMK AO2
KUYF 130555Z AUTO 34003KT 10SM CLR 17/16 A3011 RMK AO2
KUYF 130535Z AUTO 00000KT 10SM CLR 17/15 A3011 RMK AO2
KUYF 130515Z AUTO 00000KT 10SM CLR 17/16 A3011 RMK AO2
KUYF 130455Z AUTO 00000KT 10SM CLR 17/16 A3012 RMK AO2
KUYF 130435Z AUTO 00000KT 10SM CLR 17/16 A3012 RMK AO2
KUYF 130415Z AUTO 00000KT 10SM SCT100 18/17 A3012 RMK AO2